sensor_id;sensor_type;location;lat;lon;timestamp;pressure;altitude;pressure_sealevel;temperature
74587;BMP180;63088;51.090;-115.358;2022-09-09T00:04:36;87296.40;;;25.00
74587;BMP180;63088;51.090;-115.358;2022-09-09T00:10:29;87297.80;;;24.90
74587;BMP180;63088;51.090;-115.358;2022-09-09T00:13:37;87299.20;;;24.90
74587;BMP180;63088;51.090;-115.358;2022-09-09T00:16:28;87295.40;;;24.90
74587;BMP180;63088;51.090;-115.358;2022-09-09T00:22:20;87302.40;;;24.90
74587;BMP180;63088;51.090;-115.358;2022-09-09T00:24:54;87298.40;;;24.90
74587;BMP180;63088;51.090;-115.358;2022-09-09T00:27:31;87298.60;;;24.90
74587;BMP180;63088;51.090;-115.358;2022-09-09T00:32:56;87303.80;;;24.82
74587;BMP180;63088;51.090;-115.358;2022-09-09T00:35:38;87306.00;;;24.80
74587;BMP180;63088;51.090;-115.358;2022-09-09T00:44:36;87305.00;;;24.80
74587;BMP180;63088;51.090;-115.358;2022-09-09T00:50:33;87312.60;;;24.80
74587;BMP180;63088;51.090;-115.358;2022-09-09T00:53:37;87310.20;;;24.80
74587;BMP180;63088;51.090;-115.358;2022-09-09T00:56:33;87314.60;;;24.76
74587;BMP180;63088;51.090;-115.358;2022-09-09T01:02:42;87319.20;;;24.70
74587;BMP180;63088;51.090;-115.358;2022-09-09T01:05:30;87330.80;;;24.70
74587;BMP180;63088;51.090;-115.358;2022-09-09T01:11:23;87336.40;;;24.70
74587;BMP180;63088;51.090;-115.358;2022-09-09T01:17:35;87341.20;;;24.70
74587;BMP180;63088;51.090;-115.358;2022-09-09T01:28:55;87349.80;;;24.60
74587;BMP180;63088;51.090;-115.358;2022-09-09T01:31:51;87354.00;;;24.60
74587;BMP180;63088;51.090;-115.358;2022-09-09T01:34:18;87353.40;;;24.60
74587;BMP180;63088;51.090;-115.358;2022-09-09T01:37:18;87358.00;;;24.60
74587;BMP180;63088;51.090;-115.358;2022-09-09T01:39:45;87359.00;;;24.60
74587;BMP180;63088;51.090;-115.358;2022-09-09T01:42:15;87364.40;;;24.60
74587;BMP180;63088;51.090;-115.358;2022-09-09T01:44:45;87365.80;;;24.58
74587;BMP180;63088;51.090;-115.358;2022-09-09T01:47:12;87372.00;;;24.60
74587;BMP180;63088;51.090;-115.358;2022-09-09T01:49:38;87373.00;;;24.50
74587;BMP180;63088;51.090;-115.358;2022-09-09T01:52:05;87378.00;;;24.50
74587;BMP180;63088;51.090;-115.358;2022-09-09T01:54:39;87372.40;;;24.52
74587;BMP180;63088;51.090;-115.358;2022-09-09T01:57:25;87371.00;;;24.50
74587;BMP180;63088;51.090;-115.358;2022-09-09T02:00:16;87376.40;;;24.50
74587;BMP180;63088;51.090;-115.358;2022-09-09T02:06:27;87375.60;;;24.50
74587;BMP180;63088;51.090;-115.358;2022-09-09T02:09:07;87378.40;;;24.50
74587;BMP180;63088;51.090;-115.358;2022-09-09T02:11:39;87384.00;;;24.50
74587;BMP180;63088;51.090;-115.358;2022-09-09T02:14:17;87381.60;;;24.50
74587;BMP180;63088;51.090;-115.358;2022-09-09T02:17:19;87382.40;;;24.50
74587;BMP180;63088;51.090;-115.358;2022-09-09T02:20:13;87384.20;;;24.46
74587;BMP180;63088;51.090;-115.358;2022-09-09T02:22:46;87385.00;;;24.40
74587;BMP180;63088;51.090;-115.358;2022-09-09T02:25:23;87388.40;;;24.40
74587;BMP180;63088;51.090;-115.358;2022-09-09T02:27:55;87390.00;;;24.40
74587;BMP180;63088;51.090;-115.358;2022-09-09T02:30:29;87395.80;;;24.40
74587;BMP180;63088;51.090;-115.358;2022-09-09T02:33:11;87400.80;;;24.40
74587;BMP180;63088;51.090;-115.358;2022-09-09T02:35:50;87406.40;;;24.40
74587;BMP180;63088;51.090;-115.358;2022-09-09T02:38:24;87410.40;;;24.40
74587;BMP180;63088;51.090;-115.358;2022-09-09T02:40:59;87409.20;;;24.40
74587;BMP180;63088;51.090;-115.358;2022-09-09T02:43:32;87406.80;;;24.40
74587;BMP180;63088;51.090;-115.358;2022-09-09T02:53:23;87415.20;;;24.30
74587;BMP180;63088;51.090;-115.358;2022-09-09T02:56:14;87418.40;;;24.28
74587;BMP180;63088;51.090;-115.358;2022-09-09T02:58:48;87425.80;;;24.20
74587;BMP180;63088;51.090;-115.358;2022-09-09T03:01:19;87422.40;;;24.20
74587;BMP180;63088;51.090;-115.358;2022-09-09T03:03:48;87426.60;;;24.20
74587;BMP180;63088;51.090;-115.358;2022-09-09T03:06:33;87427.40;;;24.20
74587;BMP180;63088;51.090;-115.358;2022-09-09T03:09:07;87424.80;;;24.20
74587;BMP180;63088;51.090;-115.358;2022-09-09T03:11:37;87426.80;;;24.20
74587;BMP180;63088;51.090;-115.358;2022-09-09T03:14:05;87427.20;;;24.20
74587;BMP180;63088;51.090;-115.358;2022-09-09T03:16:31;87426.00;;;24.20
74587;BMP180;63088;51.090;-115.358;2022-09-09T03:19:04;87428.40;;;24.20
74587;BMP180;63088;51.090;-115.358;2022-09-09T03:21:46;87426.60;;;24.16
74587;BMP180;63088;51.090;-115.358;2022-09-09T03:24:19;87427.20;;;24.10
74587;BMP180;63088;51.090;-115.358;2022-09-09T03:26:46;87425.60;;;24.10
74587;BMP180;63088;51.090;-115.358;2022-09-09T03:29:23;87429.00;;;24.10
74587;BMP180;63088;51.090;-115.358;2022-09-09T03:31:53;87427.20;;;24.10
74587;BMP180;63088;51.090;-115.358;2022-09-09T03:34:30;87426.40;;;24.10
74587;BMP180;63088;51.090;-115.358;2022-09-09T03:37:13;87429.60;;;24.10
74587;BMP180;63088;51.090;-115.358;2022-09-09T03:39:40;87430.80;;;24.10
74587;BMP180;63088;51.090;-115.358;2022-09-09T03:42:07;87434.00;;;24.04
74587;BMP180;63088;51.090;-115.358;2022-09-09T03:44:34;87435.80;;;24.00
74587;BMP180;63088;51.090;-115.358;2022-09-09T03:47:17;87436.20;;;24.00
74587;BMP180;63088;51.090;-115.358;2022-09-09T03:49:45;87442.60;;;24.00
74587;BMP180;63088;51.090;-115.358;2022-09-09T03:52:12;87438.00;;;24.00
74587;BMP180;63088;51.090;-115.358;2022-09-09T03:54:38;87437.00;;;24.00
74587;BMP180;63088;51.090;-115.358;2022-09-09T03:57:18;87438.80;;;23.96
74587;BMP180;63088;51.090;-115.358;2022-09-09T03:59:45;87442.40;;;23.90
74587;BMP180;63088;51.090;-115.358;2022-09-09T04:02:15;87439.40;;;23.90
74587;BMP180;63088;51.090;-115.358;2022-09-09T04:04:42;87441.00;;;23.90
74587;BMP180;63088;51.090;-115.358;2022-09-09T04:07:11;87438.60;;;23.90
74587;BMP180;63088;51.090;-115.358;2022-09-09T04:09:47;87442.40;;;23.90
74587;BMP180;63088;51.090;-115.358;2022-09-09T04:12:14;87441.40;;;23.90
74587;BMP180;63088;51.090;-115.358;2022-09-09T04:14:42;87439.40;;;23.88
74587;BMP180;63088;51.090;-115.358;2022-09-09T04:17:21;87444.40;;;23.80
74587;BMP180;63088;51.090;-115.358;2022-09-09T04:19:47;87447.60;;;23.80
74587;BMP180;63088;51.090;-115.358;2022-09-09T04:22:17;87447.60;;;23.80
74587;BMP180;63088;51.090;-115.358;2022-09-09T04:24:44;87457.40;;;23.80
74587;BMP180;63088;51.090;-115.358;2022-09-09T04:27:14;87454.80;;;23.80
74587;BMP180;63088;51.090;-115.358;2022-09-09T04:29:40;87457.00;;;23.80
74587;BMP180;63088;51.090;-115.358;2022-09-09T04:32:07;87462.60;;;23.80
74587;BMP180;63088;51.090;-115.358;2022-09-09T04:34:39;87462.40;;;23.80
74587;BMP180;63088;51.090;-115.358;2022-09-09T04:37:07;87463.40;;;23.76
74587;BMP180;63088;51.090;-115.358;2022-09-09T04:39:40;87470.80;;;23.70
74587;BMP180;63088;51.090;-115.358;2022-09-09T04:42:06;87478.80;;;23.70
74587;BMP180;63088;51.090;-115.358;2022-09-09T04:44:33;87477.00;;;23.70
74587;BMP180;63088;51.090;-115.358;2022-09-09T04:47:17;87477.80;;;23.70
74587;BMP180;63088;51.090;-115.358;2022-09-09T04:49:49;87479.40;;;23.70
74587;BMP180;63088;51.090;-115.358;2022-09-09T04:52:16;87486.40;;;23.70
74587;BMP180;63088;51.090;-115.358;2022-09-09T04:54:43;87492.40;;;23.66
74587;BMP180;63088;51.090;-115.358;2022-09-09T04:57:11;87488.60;;;23.60
74587;BMP180;63088;51.090;-115.358;2022-09-09T04:59:41;87494.80;;;23.60
74587;BMP180;63088;51.090;-115.358;2022-09-09T05:02:10;87496.60;;;23.60
74587;BMP180;63088;51.090;-115.358;2022-09-09T05:04:37;87497.20;;;23.60
74587;BMP180;63088;51.090;-115.358;2022-09-09T05:07:07;87497.60;;;23.60
74587;BMP180;63088;51.090;-115.358;2022-09-09T05:09:37;87501.80;;;23.60
74587;BMP180;63088;51.090;-115.358;2022-09-09T05:12:04;87501.60;;;23.54
74587;BMP180;63088;51.090;-115.358;2022-09-09T05:14:31;87505.00;;;23.52
74587;BMP180;63088;51.090;-115.358;2022-09-09T05:16:58;87503.80;;;23.50
74587;BMP180;63088;51.090;-115.358;2022-09-09T05:19:45;87504.00;;;23.50
74587;BMP180;63088;51.090;-115.358;2022-09-09T05:22:21;87502.80;;;23.50
74587;BMP180;63088;51.090;-115.358;2022-09-09T05:24:57;87499.00;;;23.50
74587;BMP180;63088;51.090;-115.358;2022-09-09T05:27:54;87497.40;;;23.48
74587;BMP180;63088;51.090;-115.358;2022-09-09T05:30:22;87501.80;;;23.46
74587;BMP180;63088;51.090;-115.358;2022-09-09T05:32:59;87499.20;;;23.44
74587;BMP180;63088;51.090;-115.358;2022-09-09T05:35:32;87503.00;;;23.40
74587;BMP180;63088;51.090;-115.358;2022-09-09T05:38:02;87500.60;;;23.40
74587;BMP180;63088;51.090;-115.358;2022-09-09T05:40:47;87505.20;;;23.40
74587;BMP180;63088;51.090;-115.358;2022-09-09T05:43:29;87503.40;;;23.40
74587;BMP180;63088;51.090;-115.358;2022-09-09T05:46:09;87508.40;;;23.38
74587;BMP180;63088;51.090;-115.358;2022-09-09T05:48:47;87521.40;;;23.38
74587;BMP180;63088;51.090;-115.358;2022-09-09T05:51:27;87517.80;;;23.30
74587;BMP180;63088;51.090;-115.358;2022-09-09T05:54:06;87518.20;;;23.30
74587;BMP180;63088;51.090;-115.358;2022-09-09T05:56:47;87519.40;;;23.30
74587;BMP180;63088;51.090;-115.358;2022-09-09T05:59:19;87526.60;;;23.30
74587;BMP180;63088;51.090;-115.358;2022-09-09T06:01:52;87530.00;;;23.30
74587;BMP180;63088;51.090;-115.358;2022-09-09T06:04:25;87535.80;;;23.28
74587;BMP180;63088;51.090;-115.358;2022-09-09T06:07:01;87545.00;;;23.28
74587;BMP180;63088;51.090;-115.358;2022-09-09T06:09:31;87553.80;;;23.20
74587;BMP180;63088;51.090;-115.358;2022-09-09T06:12:25;87580.60;;;23.20
74587;BMP180;63088;51.090;-115.358;2022-09-09T06:14:54;87599.80;;;23.20
74587;BMP180;63088;51.090;-115.358;2022-09-09T06:17:32;87609.80;;;23.20
74587;BMP180;63088;51.090;-115.358;2022-09-09T06:20:13;87627.80;;;23.20
74587;BMP180;63088;51.090;-115.358;2022-09-09T06:22:43;87643.80;;;23.16
74587;BMP180;63088;51.090;-115.358;2022-09-09T06:25:18;87651.80;;;23.10
74587;BMP180;63088;51.090;-115.358;2022-09-09T06:27:49;87660.20;;;23.10
74587;BMP180;63088;51.090;-115.358;2022-09-09T06:30:15;87670.40;;;23.10
74587;BMP180;63088;51.090;-115.358;2022-09-09T06:32:43;87678.20;;;23.10
74587;BMP180;63088;51.090;-115.358;2022-09-09T06:35:10;87685.60;;;23.10
74587;BMP180;63088;51.090;-115.358;2022-09-09T06:37:37;87693.00;;;23.10
74587;BMP180;63088;51.090;-115.358;2022-09-09T06:40:04;87694.20;;;23.08
74587;BMP180;63088;51.090;-115.358;2022-09-09T06:42:31;87701.80;;;23.00
74587;BMP180;63088;51.090;-115.358;2022-09-09T06:44:58;87702.80;;;23.00
74587;BMP180;63088;51.090;-115.358;2022-09-09T06:47:25;87714.40;;;23.00
74587;BMP180;63088;51.090;-115.358;2022-09-09T06:49:54;87716.80;;;23.00
74587;BMP180;63088;51.090;-115.358;2022-09-09T06:52:24;87723.80;;;23.00
74587;BMP180;63088;51.090;-115.358;2022-09-09T06:54:51;87725.00;;;23.00
74587;BMP180;63088;51.090;-115.358;2022-09-09T06:57:19;87730.40;;;23.00
74587;BMP180;63088;51.090;-115.358;2022-09-09T06:59:57;87730.00;;;23.00
74587;BMP180;63088;51.090;-115.358;2022-09-09T07:02:23;87721.40;;;23.00
74587;BMP180;63088;51.090;-115.358;2022-09-09T07:04:50;87720.20;;;22.90
74587;BMP180;63088;51.090;-115.358;2022-09-09T07:07:17;87721.60;;;22.90
74587;BMP180;63088;51.090;-115.358;2022-09-09T07:09:45;87731.00;;;22.90
74587;BMP180;63088;51.090;-115.358;2022-09-09T07:12:13;87734.60;;;22.90
74587;BMP180;63088;51.090;-115.358;2022-09-09T07:14:45;87734.80;;;22.90
74587;BMP180;63088;51.090;-115.358;2022-09-09T07:17:12;87729.00;;;22.90
74587;BMP180;63088;51.090;-115.358;2022-09-09T07:19:38;87733.00;;;22.90
74587;BMP180;63088;51.090;-115.358;2022-09-09T07:22:05;87734.80;;;22.80
74587;BMP180;63088;51.090;-115.358;2022-09-09T07:24:32;87744.40;;;22.80
74587;BMP180;63088;51.090;-115.358;2022-09-09T07:27:12;87751.00;;;22.80
74587;BMP180;63088;51.090;-115.358;2022-09-09T07:29:42;87752.80;;;22.80
74587;BMP180;63088;51.090;-115.358;2022-09-09T07:32:09;87753.20;;;22.80
74587;BMP180;63088;51.090;-115.358;2022-09-09T07:34:38;87750.80;;;22.78
74587;BMP180;63088;51.090;-115.358;2022-09-09T07:37:08;87748.00;;;22.70
74587;BMP180;63088;51.090;-115.358;2022-09-09T07:39:42;87747.80;;;22.70
74587;BMP180;63088;51.090;-115.358;2022-09-09T07:42:12;87753.60;;;22.70
74587;BMP180;63088;51.090;-115.358;2022-09-09T07:44:51;87754.80;;;22.70
74587;BMP180;63088;51.090;-115.358;2022-09-09T07:47:29;87754.40;;;22.70
74587;BMP180;63088;51.090;-115.358;2022-09-09T07:49:59;87758.20;;;22.70
74587;BMP180;63088;51.090;-115.358;2022-09-09T07:55:30;87753.20;;;22.68
74587;BMP180;63088;51.090;-115.358;2022-09-09T07:58:16;87752.00;;;22.60
74587;BMP180;63088;51.090;-115.358;2022-09-09T08:00:43;87754.20;;;22.60
74587;BMP180;63088;51.090;-115.358;2022-09-09T08:03:11;87757.20;;;22.60
74587;BMP180;63088;51.090;-115.358;2022-09-09T08:05:50;87754.60;;;22.60
74587;BMP180;63088;51.090;-115.358;2022-09-09T08:08:17;87753.20;;;22.58
74587;BMP180;63088;51.090;-115.358;2022-09-09T08:10:44;87756.60;;;22.50
74587;BMP180;63088;51.090;-115.358;2022-09-09T08:13:15;87751.80;;;22.50
74587;BMP180;63088;51.090;-115.358;2022-09-09T08:15:45;87747.60;;;22.50
74587;BMP180;63088;51.090;-115.358;2022-09-09T08:18:12;87745.60;;;22.50
74587;BMP180;63088;51.090;-115.358;2022-09-09T08:20:39;87743.60;;;22.50
74587;BMP180;63088;51.090;-115.358;2022-09-09T08:23:06;87743.60;;;22.50
74587;BMP180;63088;51.090;-115.358;2022-09-09T08:25:33;87746.80;;;22.50
74587;BMP180;63088;51.090;-115.358;2022-09-09T08:28:06;87747.60;;;22.50
74587;BMP180;63088;51.090;-115.358;2022-09-09T08:31:09;87746.20;;;22.50
74587;BMP180;63088;51.090;-115.358;2022-09-09T08:33:41;87746.40;;;22.40
74587;BMP180;63088;51.090;-115.358;2022-09-09T08:36:25;87739.60;;;22.40
74587;BMP180;63088;51.090;-115.358;2022-09-09T08:38:56;87735.40;;;22.40
74587;BMP180;63088;51.090;-115.358;2022-09-09T08:42:08;87740.80;;;22.40
74587;BMP180;63088;51.090;-115.358;2022-09-09T08:50:39;87735.40;;;22.40
74587;BMP180;63088;51.090;-115.358;2022-09-09T08:53:21;87733.80;;;22.30
74587;BMP180;63088;51.090;-115.358;2022-09-09T08:55:53;87735.60;;;22.30
74587;BMP180;63088;51.090;-115.358;2022-09-09T08:58:49;87736.20;;;22.30
74587;BMP180;63088;51.090;-115.358;2022-09-09T09:02:13;87729.60;;;22.30
74587;BMP180;63088;51.090;-115.358;2022-09-09T09:05:19;87728.20;;;22.30
74587;BMP180;63088;51.090;-115.358;2022-09-09T09:10:58;87733.80;;;22.26
74587;BMP180;63088;51.090;-115.358;2022-09-09T09:16:39;87735.40;;;22.20
74587;BMP180;63088;51.090;-115.358;2022-09-09T09:19:19;87737.40;;;22.20
74587;BMP180;63088;51.090;-115.358;2022-09-09T09:25:16;87731.00;;;22.20
74587;BMP180;63088;51.090;-115.358;2022-09-09T09:33:46;87734.00;;;22.20
74587;BMP180;63088;51.090;-115.358;2022-09-09T09:36:54;87727.40;;;22.20
74587;BMP180;63088;51.090;-115.358;2022-09-09T09:39:32;87725.60;;;22.12
74587;BMP180;63088;51.090;-115.358;2022-09-09T09:42:13;87729.20;;;22.10
74587;BMP180;63088;51.090;-115.358;2022-09-09T09:44:41;87733.80;;;22.10
74587;BMP180;63088;51.090;-115.358;2022-09-09T09:47:39;87733.20;;;22.10
74587;BMP180;63088;51.090;-115.358;2022-09-09T09:50:35;87729.20;;;22.10
74587;BMP180;63088;51.090;-115.358;2022-09-09T09:53:25;87734.80;;;22.10
74587;BMP180;63088;51.090;-115.358;2022-09-09T09:58:57;87733.00;;;22.00
74587;BMP180;63088;51.090;-115.358;2022-09-09T10:01:34;87737.00;;;22.00
74587;BMP180;63088;51.090;-115.358;2022-09-09T10:04:22;87741.00;;;22.00
74587;BMP180;63088;51.090;-115.358;2022-09-09T10:09:57;87744.80;;;22.00
74587;BMP180;63088;51.090;-115.358;2022-09-09T10:13:18;87748.20;;;22.00
74587;BMP180;63088;51.090;-115.358;2022-09-09T10:19:04;87748.40;;;22.00
74587;BMP180;63088;51.090;-115.358;2022-09-09T10:21:56;87750.00;;;21.92
74587;BMP180;63088;51.090;-115.358;2022-09-09T10:31:24;87753.60;;;21.90
74587;BMP180;63088;51.090;-115.358;2022-09-09T10:34:26;87756.60;;;21.90
74587;BMP180;63088;51.090;-115.358;2022-09-09T10:36:59;87759.20;;;21.84
74587;BMP180;63088;51.090;-115.358;2022-09-09T10:39:44;87759.60;;;21.82
74587;BMP180;63088;51.090;-115.358;2022-09-09T10:42:19;87767.00;;;21.80
74587;BMP180;63088;51.090;-115.358;2022-09-09T10:45:07;87766.60;;;21.80
74587;BMP180;63088;51.090;-115.358;2022-09-09T10:48:13;87766.00;;;21.80
74587;BMP180;63088;51.090;-115.358;2022-09-09T10:56:24;87772.40;;;21.80
74587;BMP180;63088;51.090;-115.358;2022-09-09T10:59:28;87772.40;;;21.80
74587;BMP180;63088;51.090;-115.358;2022-09-09T11:02:27;87770.80;;;21.70
74587;BMP180;63088;51.090;-115.358;2022-09-09T11:07:42;87766.60;;;21.70
74587;BMP180;63088;51.090;-115.358;2022-09-09T11:10:42;87762.60;;;21.70
74587;BMP180;63088;51.090;-115.358;2022-09-09T11:22:17;87760.40;;;21.60
74587;BMP180;63088;51.090;-115.358;2022-09-09T11:28:02;87754.00;;;21.60
74587;BMP180;63088;51.090;-115.358;2022-09-09T11:33:58;87763.60;;;21.60
74587;BMP180;63088;51.090;-115.358;2022-09-09T11:37:05;87761.80;;;21.60
74587;BMP180;63088;51.090;-115.358;2022-09-09T11:39:53;87759.00;;;21.60
74587;BMP180;63088;51.090;-115.358;2022-09-09T11:42:26;87754.60;;;21.58
74587;BMP180;63088;51.090;-115.358;2022-09-09T11:45:26;87754.60;;;21.50
74587;BMP180;63088;51.090;-115.358;2022-09-09T11:48:04;87757.60;;;21.50
74587;BMP180;63088;51.090;-115.358;2022-09-09T11:50:37;87754.20;;;21.50
74587;BMP180;63088;51.090;-115.358;2022-09-09T11:53:26;87759.40;;;21.50
74587;BMP180;63088;51.090;-115.358;2022-09-09T11:56:12;87750.40;;;21.50
74587;BMP180;63088;51.090;-115.358;2022-09-09T11:58:53;87752.60;;;21.50
74587;BMP180;63088;51.090;-115.358;2022-09-09T12:01:36;87758.80;;;21.50
74587;BMP180;63088;51.090;-115.358;2022-09-09T12:07:01;87766.60;;;21.46
74587;BMP180;63088;51.090;-115.358;2022-09-09T12:12:36;87762.00;;;21.40
74587;BMP180;63088;51.090;-115.358;2022-09-09T12:15:28;87759.00;;;21.40
74587;BMP180;63088;51.090;-115.358;2022-09-09T12:18:00;87755.60;;;21.40
74587;BMP180;63088;51.090;-115.358;2022-09-09T12:20:40;87752.00;;;21.40
74587;BMP180;63088;51.090;-115.358;2022-09-09T12:24:08;87755.00;;;21.40
74587;BMP180;63088;51.090;-115.358;2022-09-09T12:27:05;87755.40;;;21.40
74587;BMP180;63088;51.090;-115.358;2022-09-09T12:30:14;87752.20;;;21.40
74587;BMP180;63088;51.090;-115.358;2022-09-09T12:32:58;87757.60;;;21.34
74587;BMP180;63088;51.090;-115.358;2022-09-09T12:35:29;87754.60;;;21.30
74587;BMP180;63088;51.090;-115.358;2022-09-09T12:38:01;87754.00;;;21.30
74587;BMP180;63088;51.090;-115.358;2022-09-09T12:40:34;87755.00;;;21.30
74587;BMP180;63088;51.090;-115.358;2022-09-09T12:43:30;87756.00;;;21.30
74587;BMP180;63088;51.090;-115.358;2022-09-09T12:46:42;87755.20;;;21.30
74587;BMP180;63088;51.090;-115.358;2022-09-09T12:49:35;87756.80;;;21.30
74587;BMP180;63088;51.090;-115.358;2022-09-09T12:52:37;87757.80;;;21.30
74587;BMP180;63088;51.090;-115.358;2022-09-09T12:55:28;87763.80;;;21.30
74587;BMP180;63088;51.090;-115.358;2022-09-09T12:57:58;87770.60;;;21.30
74587;BMP180;63088;51.090;-115.358;2022-09-09T13:00:51;87767.80;;;21.30
74587;BMP180;63088;51.090;-115.358;2022-09-09T13:03:21;87763.40;;;21.30
74587;BMP180;63088;51.090;-115.358;2022-09-09T13:05:53;87770.80;;;21.30
74587;BMP180;63088;51.090;-115.358;2022-09-09T13:08:23;87770.60;;;21.30
74587;BMP180;63088;51.090;-115.358;2022-09-09T13:11:25;87767.80;;;21.26
74587;BMP180;63088;51.090;-115.358;2022-09-09T13:14:28;87767.60;;;21.22
74587;BMP180;63088;51.090;-115.358;2022-09-09T13:17:04;87762.80;;;21.20
74587;BMP180;63088;51.090;-115.358;2022-09-09T13:19:53;87762.20;;;21.20
74587;BMP180;63088;51.090;-115.358;2022-09-09T13:25:27;87766.20;;;21.20
74587;BMP180;63088;51.090;-115.358;2022-09-09T13:28:03;87768.80;;;21.20
74587;BMP180;63088;51.090;-115.358;2022-09-09T13:30:38;87769.60;;;21.10
74587;BMP180;63088;51.090;-115.358;2022-09-09T13:35:55;87763.20;;;21.10
74587;BMP180;63088;51.090;-115.358;2022-09-09T13:38:22;87759.40;;;21.10
74587;BMP180;63088;51.090;-115.358;2022-09-09T13:41:47;87768.20;;;21.10
74587;BMP180;63088;51.090;-115.358;2022-09-09T13:44:32;87772.40;;;21.10
74587;BMP180;63088;51.090;-115.358;2022-09-09T13:47:19;87771.40;;;21.10
74587;BMP180;63088;51.090;-115.358;2022-09-09T13:49:49;87773.40;;;21.12
74587;BMP180;63088;51.090;-115.358;2022-09-09T13:52:19;87776.80;;;21.14
74587;BMP180;63088;51.090;-115.358;2022-09-09T13:54:50;87779.60;;;21.14
74587;BMP180;63088;51.090;-115.358;2022-09-09T13:57:25;87786.20;;;21.10
74587;BMP180;63088;51.090;-115.358;2022-09-09T13:59:55;87794.20;;;21.20
74587;BMP180;63088;51.090;-115.358;2022-09-09T14:02:25;87794.20;;;21.18
74587;BMP180;63088;51.090;-115.358;2022-09-09T14:04:51;87792.20;;;21.16
74587;BMP180;63088;51.090;-115.358;2022-09-09T14:07:21;87792.00;;;21.10
74587;BMP180;63088;51.090;-115.358;2022-09-09T14:09:48;87789.60;;;21.10
74587;BMP180;63088;51.090;-115.358;2022-09-09T14:12:18;87788.40;;;21.10
74587;BMP180;63088;51.090;-115.358;2022-09-09T14:14:44;87793.00;;;21.10
74587;BMP180;63088;51.090;-115.358;2022-09-09T14:17:11;87794.20;;;21.10
74587;BMP180;63088;51.090;-115.358;2022-09-09T14:19:41;87795.60;;;21.10
74587;BMP180;63088;51.090;-115.358;2022-09-09T14:22:14;87792.80;;;21.10
74587;BMP180;63088;51.090;-115.358;2022-09-09T14:24:44;87797.40;;;21.10
74587;BMP180;63088;51.090;-115.358;2022-09-09T14:27:10;87795.40;;;21.10
74587;BMP180;63088;51.090;-115.358;2022-09-09T14:29:40;87788.00;;;21.10
74587;BMP180;63088;51.090;-115.358;2022-09-09T14:32:11;87793.60;;;21.10
74587;BMP180;63088;51.090;-115.358;2022-09-09T14:34:38;87802.60;;;21.10
74587;BMP180;63088;51.090;-115.358;2022-09-09T14:37:18;87806.60;;;21.10
74587;BMP180;63088;51.090;-115.358;2022-09-09T14:39:45;87805.80;;;21.10
74587;BMP180;63088;51.090;-115.358;2022-09-09T14:42:23;87809.20;;;21.10
74587;BMP180;63088;51.090;-115.358;2022-09-09T14:44:52;87810.40;;;21.10
74587;BMP180;63088;51.090;-115.358;2022-09-09T14:47:19;87807.80;;;21.10
74587;BMP180;63088;51.090;-115.358;2022-09-09T14:49:46;87804.60;;;21.10
74587;BMP180;63088;51.090;-115.358;2022-09-09T14:52:15;87803.60;;;21.10
74587;BMP180;63088;51.090;-115.358;2022-09-09T14:54:42;87810.40;;;21.10
74587;BMP180;63088;51.090;-115.358;2022-09-09T14:57:15;87810.00;;;21.10
74587;BMP180;63088;51.090;-115.358;2022-09-09T14:59:56;87813.40;;;21.10
74587;BMP180;63088;51.090;-115.358;2022-09-09T15:02:28;87814.80;;;21.10
74587;BMP180;63088;51.090;-115.358;2022-09-09T15:04:56;87814.60;;;21.12
74587;BMP180;63088;51.090;-115.358;2022-09-09T15:07:25;87820.80;;;21.10
74587;BMP180;63088;51.090;-115.358;2022-09-09T15:09:53;87819.40;;;21.12
74587;BMP180;63088;51.090;-115.358;2022-09-09T15:12:21;87825.60;;;21.12
74587;BMP180;63088;51.090;-115.358;2022-09-09T15:15:13;87824.60;;;21.20
74587;BMP180;63088;51.090;-115.358;2022-09-09T15:17:42;87827.40;;;21.20
74587;BMP180;63088;51.090;-115.358;2022-09-09T15:20:10;87831.40;;;21.20
74587;BMP180;63088;51.090;-115.358;2022-09-09T15:22:46;87832.80;;;21.20
74587;BMP180;63088;51.090;-115.358;2022-09-09T15:25:23;87830.40;;;21.20
74587;BMP180;63088;51.090;-115.358;2022-09-09T15:27:50;87833.20;;;21.20
74587;BMP180;63088;51.090;-115.358;2022-09-09T15:30:19;87831.00;;;21.20
74587;BMP180;63088;51.090;-115.358;2022-09-09T15:32:46;87832.40;;;21.20
74587;BMP180;63088;51.090;-115.358;2022-09-09T15:35:22;87833.40;;;21.22
74587;BMP180;63088;51.090;-115.358;2022-09-09T15:37:48;87830.20;;;21.20
74587;BMP180;63088;51.090;-115.358;2022-09-09T15:40:18;87833.00;;;21.28
74587;BMP180;63088;51.090;-115.358;2022-09-09T15:42:57;87830.40;;;21.30
74587;BMP180;63088;51.090;-115.358;2022-09-09T15:45:30;87830.00;;;21.30
74587;BMP180;63088;51.090;-115.358;2022-09-09T15:48:02;87828.40;;;21.30
74587;BMP180;63088;51.090;-115.358;2022-09-09T15:50:30;87819.80;;;21.30
74587;BMP180;63088;51.090;-115.358;2022-09-09T15:53:04;87813.80;;;21.30
74587;BMP180;63088;51.090;-115.358;2022-09-09T15:55:32;87815.60;;;21.30
74587;BMP180;63088;51.090;-115.358;2022-09-09T15:57:59;87812.60;;;21.30
74587;BMP180;63088;51.090;-115.358;2022-09-09T16:00:27;87800.20;;;21.30
74587;BMP180;63088;51.090;-115.358;2022-09-09T16:02:55;87801.60;;;21.30
74587;BMP180;63088;51.090;-115.358;2022-09-09T16:05:22;87798.80;;;21.38
74587;BMP180;63088;51.090;-115.358;2022-09-09T16:07:48;87796.00;;;21.40
74587;BMP180;63088;51.090;-115.358;2022-09-09T16:10:15;87797.00;;;21.40
74587;BMP180;63088;51.090;-115.358;2022-09-09T16:12:48;87794.60;;;21.40
74587;BMP180;63088;51.090;-115.358;2022-09-09T16:15:15;87796.80;;;21.40
74587;BMP180;63088;51.090;-115.358;2022-09-09T16:17:42;87797.80;;;21.48
74587;BMP180;63088;51.090;-115.358;2022-09-09T16:20:10;87787.80;;;21.50
74587;BMP180;63088;51.090;-115.358;2022-09-09T16:22:46;87795.60;;;21.50
74587;BMP180;63088;51.090;-115.358;2022-09-09T16:25:28;87797.80;;;21.50
74587;BMP180;63088;51.090;-115.358;2022-09-09T16:28:17;87794.20;;;21.50
74587;BMP180;63088;51.090;-115.358;2022-09-09T16:30:44;87796.00;;;21.50